createdAt,value
2018-09-08T00:02:20.675Z,15.40
2018-09-08T00:04:49.114Z,15.40
2018-09-08T00:07:22.742Z,15.40
2018-09-08T00:09:51.144Z,15.40
2018-09-08T00:12:19.532Z,15.50
2018-09-08T00:14:47.134Z,15.40
2018-09-08T00:17:21.041Z,15.40
2018-09-08T00:19:54.814Z,15.40
2018-09-08T00:22:28.574Z,15.40
2018-09-08T00:25:02.363Z,15.50
2018-09-08T00:27:36.102Z,15.60
2018-09-08T00:30:11.343Z,15.60
2018-09-08T00:32:40.105Z,15.60
2018-09-08T00:35:08.489Z,15.60
2018-09-08T00:37:36.963Z,15.60
2018-09-08T00:40:05.296Z,15.70
2018-09-08T00:42:33.741Z,15.60
2018-09-08T00:45:02.093Z,15.60
2018-09-08T00:47:30.495Z,15.60
2018-09-08T00:49:58.815Z,15.60
2018-09-08T00:52:27.169Z,15.60
2018-09-08T00:54:55.515Z,15.70
2018-09-08T00:57:23.883Z,15.70
2018-09-08T00:59:52.213Z,15.70
2018-09-08T01:02:20.747Z,15.70
2018-09-08T01:04:49.074Z,15.80
2018-09-08T01:07:22.942Z,15.80
2018-09-08T01:09:51.354Z,15.80
2018-09-08T01:12:19.715Z,15.80
2018-09-08T01:14:48.088Z,15.90
2018-09-08T01:17:16.467Z,15.90
2018-09-08T01:19:45.162Z,15.90
2018-09-08T01:22:13.795Z,15.90
2018-09-08T01:24:42.453Z,15.90
2018-09-08T01:27:10.882Z,15.80
2018-09-08T01:29:39.343Z,15.80
2018-09-08T01:32:08.778Z,15.70
2018-09-08T01:34:37.186Z,15.70
2018-09-08T01:37:05.697Z,15.70
2018-09-08T01:39:34.091Z,15.60
2018-09-08T01:42:02.636Z,15.50
2018-09-08T01:44:31.472Z,15.50
2018-09-08T01:47:00.089Z,15.50
2018-09-08T01:49:28.617Z,15.50
2018-09-08T01:51:57.194Z,15.60
2018-09-08T01:54:26.235Z,15.60
2018-09-08T01:56:54.934Z,15.50
2018-09-08T01:59:23.464Z,15.50
2018-09-08T02:01:52.148Z,15.50
2018-09-08T02:04:20.728Z,15.50
2018-09-08T02:06:49.359Z,15.40
2018-09-08T02:09:17.806Z,15.30
2018-09-08T02:11:46.378Z,15.30
2018-09-08T02:14:14.766Z,15.20
2018-09-08T02:16:43.235Z,15.10
2018-09-08T02:19:11.617Z,15.10
2018-09-08T02:21:40.039Z,15.00
2018-09-08T02:24:08.623Z,15.00
2018-09-08T02:26:37.030Z,14.90
2018-09-08T02:29:06.025Z,14.80
2018-09-08T02:31:34.597Z,14.80
2018-09-08T02:34:03.371Z,14.80
2018-09-08T02:36:32.128Z,14.80
2018-09-08T02:39:00.513Z,14.70
2018-09-08T02:41:29.240Z,14.80
2018-09-08T02:43:57.599Z,14.80
2018-09-08T02:46:26.031Z,14.70
2018-09-08T02:48:54.406Z,14.70
2018-09-08T02:51:21.670Z,14.70
2018-09-08T02:53:48.923Z,14.70
2018-09-08T02:56:16.194Z,14.70
2018-09-08T02:58:43.446Z,14.80
2018-09-08T03:01:10.749Z,14.80
2018-09-08T03:03:38.102Z,14.80
2018-09-08T03:06:05.505Z,14.80
2018-09-08T03:08:32.775Z,14.90
2018-09-08T03:11:00.046Z,14.80
2018-09-08T03:13:27.636Z,14.80
2018-09-08T03:15:55.035Z,14.70
2018-09-08T03:18:22.442Z,14.60
2018-09-08T03:20:49.750Z,14.60
2018-09-08T03:23:17.018Z,14.60
2018-09-08T03:25:44.321Z,14.60
2018-09-08T03:28:12.278Z,14.50
2018-09-08T03:30:39.559Z,14.60
2018-09-08T03:33:06.823Z,14.60
2018-09-08T03:35:34.148Z,14.50
2018-09-08T03:38:01.397Z,14.50
2018-09-08T03:40:28.690Z,14.50
2018-09-08T03:42:56.008Z,14.50
2018-09-08T03:45:23.500Z,14.60
2018-09-08T03:47:51.106Z,14.60
2018-09-08T03:50:18.744Z,14.60
2018-09-08T03:52:46.577Z,14.70
2018-09-08T03:55:13.922Z,14.70
2018-09-08T03:57:41.304Z,14.70
2018-09-08T04:00:08.909Z,14.70
2018-09-08T04:02:37.435Z,14.60
2018-09-08T04:05:05.894Z,14.60
2018-09-08T04:07:34.506Z,14.60
2018-09-08T04:10:02.877Z,14.60
2018-09-08T04:12:31.468Z,14.60
2018-09-08T04:14:59.926Z,14.60
2018-09-08T04:17:29.580Z,14.60
2018-09-08T04:19:59.596Z,14.60
2018-09-08T04:22:32.389Z,14.60
2018-09-08T04:25:01.760Z,14.60
2018-09-08T04:27:30.534Z,14.60
2018-09-08T04:29:59.851Z,14.60
2018-09-08T04:32:29.143Z,14.60
2018-09-08T04:34:57.551Z,14.70
2018-09-08T04:37:26.136Z,14.70
2018-09-08T04:39:54.570Z,14.70
2018-09-08T04:42:22.982Z,14.70
2018-09-08T04:44:51.480Z,14.70
2018-09-08T04:47:19.955Z,14.70
2018-09-08T04:49:48.440Z,14.70
2018-09-08T04:52:17.017Z,14.70
2018-09-08T04:54:45.501Z,14.70
2018-09-08T04:57:14.045Z,14.70
2018-09-08T04:59:42.465Z,14.60
2018-09-08T05:02:10.897Z,14.50
2018-09-08T05:04:39.329Z,14.40
2018-09-08T05:07:08.965Z,14.40
2018-09-08T05:09:38.750Z,14.40
2018-09-08T05:12:08.426Z,14.40
2018-09-08T05:14:38.121Z,14.40
2018-09-08T05:17:07.980Z,14.40
2018-09-08T05:19:37.104Z,14.40
2018-09-08T05:22:06.413Z,14.30
2018-09-08T05:24:35.590Z,14.30
2018-09-08T05:27:04.314Z,14.30
2018-09-08T05:29:32.717Z,14.30
2018-09-08T05:32:01.279Z,14.30
2018-09-08T05:34:29.680Z,14.30
2018-09-08T05:36:58.164Z,14.30
2018-09-08T05:39:26.564Z,14.30
2018-09-08T05:41:54.902Z,14.30
2018-09-08T05:44:23.346Z,14.30
2018-09-08T05:46:51.786Z,14.20
2018-09-08T05:49:20.188Z,14.20
2018-09-08T05:51:48.744Z,14.20
2018-09-08T05:54:17.285Z,14.10
2018-09-08T05:56:45.670Z,14.10
2018-09-08T05:59:14.414Z,14.10
2018-09-08T06:01:44.059Z,14.00
2018-09-08T06:04:13.710Z,14.00
2018-09-08T06:06:43.151Z,14.00
2018-09-08T06:09:12.130Z,14.10
2018-09-08T06:11:42.124Z,14.10
2018-09-08T06:14:11.479Z,14.10
2018-09-08T06:16:40.319Z,14.10
2018-09-08T06:19:09.128Z,14.00
2018-09-08T06:21:37.579Z,14.00
2018-09-08T06:24:06.260Z,14.00
2018-09-08T06:26:34.696Z,13.90
2018-09-08T06:29:03.269Z,13.90
2018-09-08T06:31:31.641Z,13.90
2018-09-08T06:34:00.079Z,13.90
2018-09-08T06:36:28.787Z,13.90
2018-09-08T06:38:57.180Z,14.00
2018-09-08T06:41:25.658Z,14.10
2018-09-08T06:43:54.239Z,14.20
2018-09-08T06:46:22.674Z,14.40
2018-09-08T06:48:51.042Z,14.50
2018-09-08T06:51:19.645Z,14.50
2018-09-08T06:53:48.104Z,14.60
2018-09-08T06:56:16.533Z,14.70
2018-09-08T06:58:45.146Z,14.70
2018-09-08T07:01:13.872Z,14.70
2018-09-08T07:03:42.270Z,14.80
2018-09-08T07:06:10.666Z,14.70
2018-09-08T07:08:39.206Z,14.80
2018-09-08T07:11:07.600Z,14.90
2018-09-08T07:13:36.998Z,15.00
2018-09-08T07:16:05.531Z,15.10
2018-09-08T07:18:34.119Z,15.20
2018-09-08T07:21:02.571Z,15.30
2018-09-08T07:23:31.783Z,15.30
2018-09-08T07:26:00.582Z,15.30
2018-09-08T07:28:29.208Z,15.30
2018-09-08T07:30:57.618Z,15.40
2018-09-08T07:33:25.986Z,15.40
2018-09-08T07:35:54.357Z,15.50
2018-09-08T07:38:22.898Z,15.40
2018-09-08T07:40:51.691Z,15.50
2018-09-08T07:43:20.267Z,15.60
2018-09-08T07:45:48.880Z,15.60
2018-09-08T07:48:17.572Z,15.70
2018-09-08T07:50:45.995Z,15.80
2018-09-08T07:53:14.458Z,15.90
2018-09-08T07:55:43.217Z,15.90
2018-09-08T07:58:11.827Z,16.00
2018-09-08T08:00:40.292Z,16.10
2018-09-08T08:03:08.664Z,16.10
2018-09-08T08:05:37.100Z,16.10
2018-09-08T08:08:05.630Z,16.10
2018-09-08T08:10:35.827Z,16.10
2018-09-08T08:13:04.201Z,16.20
2018-09-08T08:15:32.831Z,16.30
2018-09-08T08:18:01.517Z,16.40
2018-09-08T08:20:30.267Z,16.50
2018-09-08T08:22:58.611Z,16.60
2018-09-08T08:25:27.085Z,16.60
2018-09-08T08:27:55.494Z,16.70
2018-09-08T08:30:24.046Z,16.90
2018-09-08T08:32:52.385Z,17.00
2018-09-08T08:35:20.850Z,17.20
2018-09-08T08:37:49.295Z,17.30
2018-09-08T08:40:17.725Z,17.20
2018-09-08T08:42:46.113Z,17.20
2018-09-08T08:45:14.536Z,17.10
2018-09-08T08:47:42.884Z,17.10
2018-09-08T08:50:22.566Z,17.20
2018-09-08T08:53:02.521Z,17.10
2018-09-08T08:55:30.974Z,17.10
2018-09-08T08:57:59.318Z,17.30
2018-09-08T09:00:27.723Z,17.40
2018-09-08T09:02:56.147Z,17.40
2018-09-08T09:05:24.954Z,17.60
2018-09-08T09:07:53.344Z,17.70
2018-09-08T09:10:21.889Z,17.70
2018-09-08T09:12:50.483Z,17.70
2018-09-08T09:15:19.736Z,17.70
2018-09-08T09:17:48.101Z,17.80
2018-09-08T09:20:28.051Z,17.80
2018-09-08T09:23:08.538Z,17.90
2018-09-08T09:25:37.260Z,17.90
2018-09-08T09:28:06.235Z,18.00
2018-09-08T09:30:35.220Z,18.00
2018-09-08T09:33:03.692Z,18.10
2018-09-08T09:35:32.219Z,18.10
2018-09-08T09:38:00.830Z,18.20
2018-09-08T09:40:29.521Z,18.30
2018-09-08T09:42:58.752Z,18.40
2018-09-08T09:45:27.762Z,18.40
2018-09-08T09:47:56.359Z,18.50
2018-09-08T09:50:25.221Z,18.60
2018-09-08T09:52:54.026Z,18.60
2018-09-08T09:55:23.114Z,18.60
2018-09-08T09:57:51.917Z,18.50
2018-09-08T10:00:26.521Z,18.50
2018-09-08T10:03:00.747Z,18.60
2018-09-08T10:05:29.978Z,18.70
2018-09-08T10:07:59.180Z,18.70
2018-09-08T10:10:29.290Z,18.80
2018-09-08T10:12:58.546Z,18.80
2018-09-08T10:15:27.505Z,18.90
2018-09-08T10:17:57.102Z,18.90
2018-09-08T10:20:26.862Z,18.90
2018-09-08T10:22:56.309Z,19.00
2018-09-08T10:25:25.742Z,19.00
2018-09-08T10:27:55.434Z,19.00
2018-09-08T10:30:24.752Z,19.10
2018-09-08T10:32:53.954Z,19.20
2018-09-08T10:35:23.216Z,19.40
2018-09-08T10:37:52.573Z,19.40
2018-09-08T10:40:21.721Z,19.40
2018-09-08T10:42:50.793Z,19.40
2018-09-08T10:45:19.616Z,19.50
2018-09-08T10:47:49.096Z,19.50
2018-09-08T10:50:18.716Z,19.50
2018-09-08T10:52:48.818Z,19.60
2018-09-08T10:55:18.183Z,19.60
2018-09-08T10:57:48.363Z,19.70
2018-09-08T11:00:18.421Z,19.60
2018-09-08T11:02:48.935Z,19.70
2018-09-08T11:05:18.957Z,19.60
2018-09-08T11:07:48.930Z,19.70
2018-09-08T11:10:18.549Z,19.60
2018-09-08T11:12:48.477Z,19.60
2018-09-08T11:15:18.415Z,19.50
2018-09-08T11:17:48.009Z,19.60
2018-09-08T11:20:18.134Z,19.60
2018-09-08T11:22:48.520Z,19.60
2018-09-08T11:25:18.312Z,19.60
2018-09-08T11:27:48.606Z,19.50
2018-09-08T11:30:18.351Z,19.60
2018-09-08T11:32:48.942Z,19.70
2018-09-08T11:35:19.424Z,19.80
2018-09-08T11:37:50.099Z,20.00
2018-09-08T11:40:20.524Z,20.30
2018-09-08T11:42:52.737Z,20.50
2018-09-08T11:45:22.520Z,20.60
2018-09-08T11:47:52.736Z,20.80
2018-09-08T11:50:22.827Z,21.00
2018-09-08T11:52:52.965Z,21.00
2018-09-08T11:55:25.306Z,21.00
2018-09-08T11:57:55.743Z,21.00
2018-09-08T12:00:28.794Z,21.10
2018-09-08T12:02:59.803Z,21.30
2018-09-08T12:05:29.425Z,21.30
2018-09-08T12:07:58.164Z,21.20
2018-09-08T12:10:26.623Z,20.90
2018-09-08T12:12:55.024Z,20.70
2018-09-08T12:15:25.931Z,20.50
2018-09-08T12:17:55.100Z,20.40
2018-09-08T12:20:25.908Z,20.20
2018-09-08T12:22:55.083Z,20.10
2018-09-08T12:25:25.347Z,20.10
2018-09-08T12:27:54.996Z,20.10
2018-09-08T12:30:25.703Z,20.00
2018-09-08T12:32:56.038Z,20.00
2018-09-08T12:35:24.711Z,20.00
2018-09-08T12:37:54.280Z,20.10
2018-09-08T12:40:23.143Z,20.20
2018-09-08T12:42:51.612Z,20.30
2018-09-08T12:45:20.467Z,20.50
2018-09-08T12:47:49.100Z,20.60
2018-09-08T12:50:18.194Z,20.50
2018-09-08T12:52:47.169Z,20.50
2018-09-08T12:55:16.579Z,20.50
2018-09-08T12:57:45.331Z,20.70
2018-09-08T13:00:13.781Z,21.00
2018-09-08T13:02:43.248Z,21.40
2018-09-08T13:05:12.097Z,21.70
2018-09-08T13:07:41.697Z,22.00
2018-09-08T13:10:10.649Z,22.20
2018-09-08T13:12:39.308Z,22.20
2018-09-08T13:15:08.376Z,22.10
2018-09-08T13:17:36.865Z,22.10
2018-09-08T13:20:05.624Z,22.00
2018-09-08T13:22:34.513Z,22.20
2018-09-08T13:25:03.305Z,22.30
2018-09-08T13:27:31.847Z,22.20
2018-09-08T13:30:00.910Z,22.00
2018-09-08T13:32:29.520Z,22.00
2018-09-08T13:34:58.097Z,22.00
2018-09-08T13:37:26.730Z,21.90
2018-09-08T13:39:55.529Z,21.80
2018-09-08T13:42:23.983Z,21.80
2018-09-08T13:44:52.676Z,21.70
2018-09-08T13:47:21.189Z,21.60
2018-09-08T13:49:50.222Z,21.60
2018-09-08T13:52:18.989Z,21.50
2018-09-08T13:54:47.965Z,21.40
2018-09-08T13:57:17.734Z,21.40
2018-09-08T13:59:46.690Z,21.40
2018-09-08T14:02:15.405Z,21.60
2018-09-08T14:04:44.260Z,21.70
2018-09-08T14:07:12.813Z,21.90
2018-09-08T14:09:43.541Z,21.80
2018-09-08T14:12:12.764Z,21.80
2018-09-08T14:14:41.920Z,21.70
2018-09-08T14:17:11.300Z,21.50
2018-09-08T14:19:41.243Z,21.30
2018-09-08T14:22:10.574Z,21.20
2018-09-08T14:24:39.704Z,21.10
2018-09-08T14:27:09.333Z,21.10
2018-09-08T14:29:38.596Z,21.20
2018-09-08T14:32:07.763Z,21.20
2018-09-08T14:34:37.127Z,21.20
2018-09-08T14:37:06.027Z,21.20
2018-09-08T14:39:34.895Z,21.20
2018-09-08T14:42:04.074Z,21.30
2018-09-08T14:44:34.518Z,21.30
2018-09-08T14:47:03.799Z,21.40
2018-09-08T14:49:32.975Z,21.40
2018-09-08T14:52:02.138Z,21.40
2018-09-08T14:54:31.072Z,21.30
2018-09-08T14:57:00.116Z,21.30
2018-09-08T14:59:29.456Z,21.30
2018-09-08T15:01:59.017Z,21.30
2018-09-08T15:04:28.505Z,21.20
2018-09-08T15:06:58.140Z,21.20
2018-09-08T15:09:27.729Z,21.20
2018-09-08T15:11:57.203Z,21.20
2018-09-08T15:14:26.862Z,21.20
2018-09-08T15:16:56.648Z,21.10
2018-09-08T15:19:26.201Z,21.10
2018-09-08T15:21:55.216Z,21.00
2018-09-08T15:24:25.089Z,21.00
2018-09-08T15:26:55.175Z,20.90
2018-09-08T15:29:25.048Z,20.90
2018-09-08T15:31:54.561Z,20.90
2018-09-08T15:34:23.846Z,20.90
2018-09-08T15:36:53.767Z,20.90
2018-09-08T15:39:23.273Z,20.80
2018-09-08T15:41:52.680Z,20.80
2018-09-08T15:44:21.847Z,20.80
2018-09-08T15:46:51.201Z,20.80
2018-09-08T15:49:20.897Z,20.70
2018-09-08T15:51:50.435Z,20.60
2018-09-08T15:54:20.108Z,20.60
2018-09-08T15:56:49.436Z,20.60
2018-09-08T15:59:18.160Z,20.60
2018-09-08T16:01:47.933Z,20.60
2018-09-08T16:04:17.346Z,20.70
2018-09-08T16:06:45.958Z,20.70
2018-09-08T16:09:15.875Z,20.70
2018-09-08T16:11:44.677Z,20.70
2018-09-08T16:14:13.875Z,20.80
2018-09-08T16:16:42.949Z,20.80
2018-09-08T16:19:12.113Z,20.80
2018-09-08T16:21:41.199Z,20.80
2018-09-08T16:24:10.375Z,20.90
2018-09-08T16:26:39.071Z,20.90
2018-09-08T16:29:08.449Z,20.90
2018-09-08T16:31:37.643Z,20.90
2018-09-08T16:34:07.595Z,20.90
2018-09-08T16:36:37.194Z,20.90
2018-09-08T16:39:09.421Z,20.90
2018-09-08T16:41:38.512Z,20.90
2018-09-08T16:44:08.860Z,20.90
2018-09-08T16:46:38.034Z,20.90
2018-09-08T16:49:07.508Z,21.00
2018-09-08T16:51:36.549Z,20.90
2018-09-08T16:54:06.515Z,20.90
2018-09-08T16:56:35.865Z,20.90
2018-09-08T16:59:05.527Z,20.90
2018-09-08T17:01:34.777Z,20.90
2018-09-08T17:04:04.184Z,20.80
2018-09-08T17:06:33.361Z,20.80
2018-09-08T17:09:02.877Z,20.80
2018-09-08T17:11:32.646Z,20.70
2018-09-08T17:14:01.637Z,20.80
2018-09-08T17:16:31.163Z,20.70
2018-09-08T17:19:00.392Z,20.70
2018-09-08T17:21:29.980Z,20.70
2018-09-08T17:23:59.040Z,20.70
2018-09-08T17:26:28.228Z,20.70
2018-09-08T17:28:58.152Z,20.70
2018-09-08T17:31:27.090Z,20.70
2018-09-08T17:33:56.646Z,20.70
2018-09-08T17:36:26.288Z,20.70
2018-09-08T17:38:56.179Z,20.70
2018-09-08T17:41:25.761Z,20.70
2018-09-08T17:43:55.392Z,20.70
2018-09-08T17:46:24.580Z,20.60
2018-09-08T17:48:54.664Z,20.60
2018-09-08T17:51:23.370Z,20.60
2018-09-08T17:53:52.822Z,20.60
2018-09-08T17:56:22.687Z,20.60
2018-09-08T17:58:51.993Z,20.60
2018-09-08T18:01:21.375Z,20.60
2018-09-08T18:03:52.244Z,20.60
2018-09-08T18:06:21.788Z,20.50
2018-09-08T18:08:50.785Z,20.50
2018-09-08T18:11:20.002Z,20.50
2018-09-08T18:13:48.894Z,20.50
2018-09-08T18:16:18.851Z,20.40
2018-09-08T18:18:49.640Z,20.40
2018-09-08T18:21:19.168Z,20.40
2018-09-08T18:23:48.756Z,20.40
2018-09-08T18:26:17.932Z,20.40
2018-09-08T18:28:47.271Z,20.40
2018-09-08T18:31:17.320Z,20.40
2018-09-08T18:33:46.831Z,20.40
2018-09-08T18:36:16.469Z,20.40
2018-09-08T18:38:45.903Z,20.30
2018-09-08T18:41:15.439Z,20.30
2018-09-08T18:43:49.003Z,20.20
2018-09-08T18:46:18.553Z,20.20
2018-09-08T18:48:48.186Z,20.20
2018-09-08T18:51:17.699Z,20.10
2018-09-08T18:53:46.957Z,20.10
2018-09-08T18:56:17.030Z,20.00
2018-09-08T18:58:46.717Z,20.00
2018-09-08T19:01:16.280Z,19.90
2018-09-08T19:03:46.019Z,19.90
2018-09-08T19:06:15.282Z,19.90
2018-09-08T19:08:45.519Z,19.90
2018-09-08T19:11:15.378Z,19.80
2018-09-08T19:13:45.222Z,19.80
2018-09-08T19:16:14.610Z,19.70
2018-09-08T19:18:43.791Z,19.60
2018-09-08T19:21:12.917Z,19.60
2018-09-08T19:23:41.711Z,19.60
2018-09-08T19:26:10.368Z,19.60
2018-09-08T19:28:38.997Z,19.60
2018-09-08T19:31:07.520Z,19.60
2018-09-08T19:33:36.091Z,19.50
2018-09-08T19:36:04.657Z,19.50
2018-09-08T19:38:33.500Z,19.40
2018-09-08T19:41:02.105Z,19.50
2018-09-08T19:43:30.813Z,19.40
2018-09-08T19:46:03.455Z,19.40
2018-09-08T19:48:32.547Z,19.40
2018-09-08T19:51:01.317Z,19.40
2018-09-08T19:53:35.174Z,19.40
2018-09-08T19:56:03.779Z,19.40
2018-09-08T19:58:37.939Z,19.30
2018-09-08T20:01:06.750Z,19.40
2018-09-08T20:03:35.594Z,19.30
2018-09-08T20:06:04.472Z,19.30
2018-09-08T20:08:33.213Z,19.20
2018-09-08T20:11:01.827Z,19.20
2018-09-08T20:13:30.483Z,19.20
2018-09-08T20:15:58.963Z,19.20
2018-09-08T20:18:27.656Z,19.20
2018-09-08T20:20:57.562Z,19.10
2018-09-08T20:23:26.367Z,19.10
2018-09-08T20:25:55.489Z,19.10
2018-09-08T20:28:25.050Z,19.00
2018-09-08T20:30:54.969Z,19.00
2018-09-08T20:33:23.889Z,19.00
2018-09-08T20:35:52.833Z,19.00
2018-09-08T20:38:22.426Z,19.00
2018-09-08T20:40:51.407Z,19.00
2018-09-08T20:43:20.999Z,19.00
2018-09-08T20:45:50.161Z,19.00
2018-09-08T20:48:19.764Z,19.10
2018-09-08T20:50:49.321Z,19.10
2018-09-08T20:53:19.981Z,19.10
2018-09-08T20:55:49.488Z,19.10
2018-09-08T20:58:18.737Z,19.10
2018-09-08T21:00:48.192Z,19.10
2018-09-08T21:03:17.129Z,19.10
2018-09-08T21:05:46.465Z,19.10
2018-09-08T21:08:15.795Z,19.10
2018-09-08T21:10:44.637Z,19.10
2018-09-08T21:13:13.428Z,19.10
2018-09-08T21:15:42.518Z,19.00
2018-09-08T21:18:11.635Z,19.00
2018-09-08T21:20:40.210Z,19.00
2018-09-08T21:23:08.651Z,19.00
2018-09-08T21:25:37.030Z,19.00
2018-09-08T21:28:05.593Z,19.00
2018-09-08T21:30:34.071Z,19.00
2018-09-08T21:33:02.605Z,18.90
2018-09-08T21:35:31.040Z,18.90
2018-09-08T21:37:59.976Z,18.80
2018-09-08T21:40:29.255Z,18.80
2018-09-08T21:42:58.039Z,18.80
2018-09-08T21:45:26.931Z,18.80
2018-09-08T21:47:55.461Z,18.80
2018-09-08T21:50:25.176Z,18.80
2018-09-08T21:52:53.691Z,18.70
2018-09-08T21:55:22.190Z,18.80
2018-09-08T21:57:51.367Z,18.70
2018-09-08T22:00:21.398Z,18.70
2018-09-08T22:02:50.904Z,18.70
2018-09-08T22:05:20.603Z,18.70
2018-09-08T22:07:49.772Z,18.60
2018-09-08T22:10:19.348Z,18.60
2018-09-08T22:12:48.823Z,18.50
2018-09-08T22:15:18.616Z,18.50
2018-09-08T22:17:48.145Z,18.60
2018-09-08T22:20:17.357Z,18.50
2018-09-08T22:22:46.823Z,18.50
2018-09-08T22:25:16.252Z,18.50
2018-09-08T22:27:45.320Z,18.50
2018-09-08T22:30:14.926Z,18.40
2018-09-08T22:32:44.079Z,18.40
2018-09-08T22:35:13.353Z,18.40
2018-09-08T22:37:42.919Z,18.40
2018-09-08T22:40:12.248Z,18.40
2018-09-08T22:42:41.623Z,18.40
2018-09-08T22:45:11.139Z,18.40
2018-09-08T22:47:39.970Z,18.40
2018-09-08T22:50:09.825Z,18.40
2018-09-08T22:52:39.023Z,18.50
2018-09-08T22:55:07.716Z,18.50
2018-09-08T22:57:37.231Z,18.40
2018-09-08T23:00:05.806Z,18.40
2018-09-08T23:02:34.278Z,18.40
2018-09-08T23:05:02.989Z,18.40
2018-09-08T23:07:31.675Z,18.40
2018-09-08T23:10:00.108Z,18.40
2018-09-08T23:12:28.776Z,18.40
2018-09-08T23:14:57.338Z,18.40
2018-09-08T23:17:25.940Z,18.30
2018-09-08T23:19:54.736Z,18.30
2018-09-08T23:22:23.554Z,18.30
2018-09-08T23:24:52.062Z,18.30
2018-09-08T23:27:20.438Z,18.20
2018-09-08T23:29:48.984Z,18.20
2018-09-08T23:32:17.969Z,18.20
2018-09-08T23:34:47.059Z,18.20
2018-09-08T23:37:16.359Z,18.20
2018-09-08T23:39:46.164Z,18.20
2018-09-08T23:42:14.983Z,18.10
2018-09-08T23:44:44.407Z,18.10
2018-09-08T23:47:14.218Z,18.10
2018-09-08T23:49:43.511Z,18.10
2018-09-08T23:52:12.815Z,18.10
2018-09-08T23:54:42.361Z,18.10
2018-09-08T23:57:11.416Z,18.10
2018-09-08T23:59:40.922Z,18.10
